sensor_id;sensor_type;location;lat;lon;timestamp;temperature;humidity
20068;DHT22;10194;50.824;7.134;2022-10-31T00:02:23;10.90;99.90
20068;DHT22;10194;50.824;7.134;2022-10-31T00:04:48;10.80;99.90
20068;DHT22;10194;50.824;7.134;2022-10-31T00:07:14;10.80;99.90
20068;DHT22;10194;50.824;7.134;2022-10-31T00:09:40;10.80;99.90
20068;DHT22;10194;50.824;7.134;2022-10-31T00:12:05;10.80;99.90
20068;DHT22;10194;50.824;7.134;2022-10-31T00:14:31;10.80;99.90
20068;DHT22;10194;50.824;7.134;2022-10-31T00:16:57;10.80;99.90
20068;DHT22;10194;50.824;7.134;2022-10-31T00:19:23;10.70;99.90
20068;DHT22;10194;50.824;7.134;2022-10-31T00:21:50;10.80;99.90
20068;DHT22;10194;50.824;7.134;2022-10-31T00:24:16;10.80;99.90
20068;DHT22;10194;50.824;7.134;2022-10-31T00:26:42;10.90;99.90
20068;DHT22;10194;50.824;7.134;2022-10-31T00:29:08;10.90;99.90
20068;DHT22;10194;50.824;7.134;2022-10-31T00:31:34;10.90;99.90
20068;DHT22;10194;50.824;7.134;2022-10-31T00:33:59;10.80;99.90
20068;DHT22;10194;50.824;7.134;2022-10-31T00:36:31;10.90;99.90
20068;DHT22;10194;50.824;7.134;2022-10-31T00:38:58;10.90;99.90
20068;DHT22;10194;50.824;7.134;2022-10-31T00:41:24;10.90;99.90
20068;DHT22;10194;50.824;7.134;2022-10-31T00:43:50;11.00;99.90
20068;DHT22;10194;50.824;7.134;2022-10-31T00:46:16;11.00;99.90
20068;DHT22;10194;50.824;7.134;2022-10-31T00:48:42;10.90;99.90
20068;DHT22;10194;50.824;7.134;2022-10-31T00:51:08;11.00;99.90
20068;DHT22;10194;50.824;7.134;2022-10-31T00:53:34;11.00;99.90
20068;DHT22;10194;50.824;7.134;2022-10-31T00:56:00;11.00;99.90
20068;DHT22;10194;50.824;7.134;2022-10-31T00:58:26;11.00;99.90
20068;DHT22;10194;50.824;7.134;2022-10-31T01:00:52;11.00;99.90
20068;DHT22;10194;50.824;7.134;2022-10-31T01:03:38;11.00;99.90
20068;DHT22;10194;50.824;7.134;2022-10-31T01:06:10;11.00;99.90
20068;DHT22;10194;50.824;7.134;2022-10-31T01:08:37;11.00;99.90
20068;DHT22;10194;50.824;7.134;2022-10-31T01:11:18;11.00;99.90
20068;DHT22;10194;50.824;7.134;2022-10-31T01:13:46;11.00;99.90
20068;DHT22;10194;50.824;7.134;2022-10-31T01:16:15;11.10;99.90
20068;DHT22;10194;50.824;7.134;2022-10-31T01:18:44;11.20;99.90
20068;DHT22;10194;50.824;7.134;2022-10-31T01:21:19;11.20;99.90
20068;DHT22;10194;50.824;7.134;2022-10-31T01:23:46;11.20;99.90
20068;DHT22;10194;50.824;7.134;2022-10-31T01:26:17;11.20;99.90
20068;DHT22;10194;50.824;7.134;2022-10-31T01:28:49;11.10;99.90
20068;DHT22;10194;50.824;7.134;2022-10-31T01:31:19;11.10;99.90
20068;DHT22;10194;50.824;7.134;2022-10-31T01:33:46;11.10;99.90
20068;DHT22;10194;50.824;7.134;2022-10-31T01:36:18;11.10;99.90
20068;DHT22;10194;50.824;7.134;2022-10-31T01:38:47;11.10;99.90
20068;DHT22;10194;50.824;7.134;2022-10-31T01:41:19;11.00;99.90
20068;DHT22;10194;50.824;7.134;2022-10-31T01:43:48;11.00;99.90
20068;DHT22;10194;50.824;7.134;2022-10-31T01:46:16;11.00;99.90
20068;DHT22;10194;50.824;7.134;2022-10-31T01:48:45;11.00;99.90
20068;DHT22;10194;50.824;7.134;2022-10-31T01:51:12;11.00;99.90
20068;DHT22;10194;50.824;7.134;2022-10-31T01:53:40;11.00;99.90
20068;DHT22;10194;50.824;7.134;2022-10-31T01:56:07;11.00;99.90
20068;DHT22;10194;50.824;7.134;2022-10-31T01:58:33;11.00;99.90
20068;DHT22;10194;50.824;7.134;2022-10-31T02:01:01;11.00;99.90
20068;DHT22;10194;50.824;7.134;2022-10-31T02:03:28;11.00;99.90
20068;DHT22;10194;50.824;7.134;2022-10-31T02:05:55;11.10;99.90
20068;DHT22;10194;50.824;7.134;2022-10-31T02:08:29;11.10;99.90
20068;DHT22;10194;50.824;7.134;2022-10-31T02:11:00;11.20;99.90
20068;DHT22;10194;50.824;7.134;2022-10-31T02:13:28;11.20;99.90
20068;DHT22;10194;50.824;7.134;2022-10-31T02:15:57;11.10;99.90
20068;DHT22;10194;50.824;7.134;2022-10-31T02:18:27;11.20;99.90
20068;DHT22;10194;50.824;7.134;2022-10-31T02:26:49;11.20;99.90
20068;DHT22;10194;50.824;7.134;2022-10-31T02:35:24;11.20;99.90
20068;DHT22;10194;50.824;7.134;2022-10-31T02:41:04;11.20;99.90
20068;DHT22;10194;50.824;7.134;2022-10-31T02:43:48;11.20;99.90
20068;DHT22;10194;50.824;7.134;2022-10-31T02:46:54;11.20;99.90
20068;DHT22;10194;50.824;7.134;2022-10-31T02:49:38;11.10;99.90
20068;DHT22;10194;50.824;7.134;2022-10-31T02:52:20;11.00;99.90
20068;DHT22;10194;50.824;7.134;2022-10-31T02:54:49;10.90;99.90
20068;DHT22;10194;50.824;7.134;2022-10-31T02:57:19;10.90;99.90
20068;DHT22;10194;50.824;7.134;2022-10-31T03:00:00;10.90;99.90
20068;DHT22;10194;50.824;7.134;2022-10-31T03:10:58;10.80;99.90
20068;DHT22;10194;50.824;7.134;2022-10-31T03:19:37;10.90;99.90
20068;DHT22;10194;50.824;7.134;2022-10-31T03:22:19;11.00;99.90
20068;DHT22;10194;50.824;7.134;2022-10-31T03:24:47;11.00;99.90
20068;DHT22;10194;50.824;7.134;2022-10-31T03:27:20;11.10;99.90
20068;DHT22;10194;50.824;7.134;2022-10-31T03:29:51;11.20;99.90
20068;DHT22;10194;50.824;7.134;2022-10-31T03:32:29;11.20;99.90
20068;DHT22;10194;50.824;7.134;2022-10-31T03:35:02;11.20;99.90
20068;DHT22;10194;50.824;7.134;2022-10-31T03:37:32;11.20;99.90
20068;DHT22;10194;50.824;7.134;2022-10-31T03:40:00;11.20;99.90
20068;DHT22;10194;50.824;7.134;2022-10-31T03:42:31;11.10;99.90
20068;DHT22;10194;50.824;7.134;2022-10-31T03:45:09;11.00;99.90
20068;DHT22;10194;50.824;7.134;2022-10-31T03:47:38;11.00;99.90
20068;DHT22;10194;50.824;7.134;2022-10-31T03:50:07;10.90;99.90
20068;DHT22;10194;50.824;7.134;2022-10-31T03:52:35;10.90;99.90
20068;DHT22;10194;50.824;7.134;2022-10-31T03:55:35;11.10;99.90
20068;DHT22;10194;50.824;7.134;2022-10-31T03:58:10;11.20;99.90
20068;DHT22;10194;50.824;7.134;2022-10-31T04:00:41;11.20;99.90
20068;DHT22;10194;50.824;7.134;2022-10-31T04:03:25;11.30;99.90
20068;DHT22;10194;50.824;7.134;2022-10-31T04:05:54;11.30;99.90
20068;DHT22;10194;50.824;7.134;2022-10-31T04:08:24;11.20;99.90
20068;DHT22;10194;50.824;7.134;2022-10-31T04:10:53;11.20;99.90
20068;DHT22;10194;50.824;7.134;2022-10-31T04:13:24;11.20;99.90
20068;DHT22;10194;50.824;7.134;2022-10-31T04:15:53;11.20;99.90
20068;DHT22;10194;50.824;7.134;2022-10-31T04:18:21;11.20;99.90
20068;DHT22;10194;50.824;7.134;2022-10-31T04:20:48;11.20;99.90
20068;DHT22;10194;50.824;7.134;2022-10-31T04:23:23;11.20;99.90
20068;DHT22;10194;50.824;7.134;2022-10-31T04:25:50;11.20;99.90
20068;DHT22;10194;50.824;7.134;2022-10-31T04:28:15;11.20;99.90
20068;DHT22;10194;50.824;7.134;2022-10-31T04:30:41;11.10;99.90
20068;DHT22;10194;50.824;7.134;2022-10-31T04:33:07;11.10;99.90
20068;DHT22;10194;50.824;7.134;2022-10-31T04:35:33;11.10;99.90
20068;DHT22;10194;50.824;7.134;2022-10-31T04:37:58;11.10;99.90
20068;DHT22;10194;50.824;7.134;2022-10-31T04:40:24;11.00;99.90
20068;DHT22;10194;50.824;7.134;2022-10-31T04:42:50;11.00;99.90
20068;DHT22;10194;50.824;7.134;2022-10-31T04:45:15;11.00;99.90
20068;DHT22;10194;50.824;7.134;2022-10-31T04:47:41;11.00;99.90
20068;DHT22;10194;50.824;7.134;2022-10-31T04:50:08;10.90;99.90
20068;DHT22;10194;50.824;7.134;2022-10-31T04:52:39;10.90;99.90
20068;DHT22;10194;50.824;7.134;2022-10-31T04:55:06;10.90;99.90
20068;DHT22;10194;50.824;7.134;2022-10-31T04:57:32;10.90;99.90
20068;DHT22;10194;50.824;7.134;2022-10-31T04:59:57;11.00;99.90
20068;DHT22;10194;50.824;7.134;2022-10-31T05:02:23;11.00;99.90
20068;DHT22;10194;50.824;7.134;2022-10-31T05:04:49;11.00;99.90
20068;DHT22;10194;50.824;7.134;2022-10-31T05:07:15;11.00;99.90
20068;DHT22;10194;50.824;7.134;2022-10-31T05:09:40;10.90;99.90
20068;DHT22;10194;50.824;7.134;2022-10-31T05:12:06;10.80;99.90
20068;DHT22;10194;50.824;7.134;2022-10-31T05:14:32;10.80;99.90
20068;DHT22;10194;50.824;7.134;2022-10-31T05:16:57;10.80;99.90
20068;DHT22;10194;50.824;7.134;2022-10-31T05:19:23;10.80;99.90
20068;DHT22;10194;50.824;7.134;2022-10-31T05:21:49;10.80;99.90
20068;DHT22;10194;50.824;7.134;2022-10-31T05:24:15;10.80;99.90
20068;DHT22;10194;50.824;7.134;2022-10-31T05:26:40;10.80;99.90
20068;DHT22;10194;50.824;7.134;2022-10-31T05:29:06;10.70;99.90
20068;DHT22;10194;50.824;7.134;2022-10-31T05:31:32;10.70;99.90
20068;DHT22;10194;50.824;7.134;2022-10-31T05:33:57;10.60;99.90
20068;DHT22;10194;50.824;7.134;2022-10-31T05:36:24;10.70;99.90
20068;DHT22;10194;50.824;7.134;2022-10-31T05:38:49;10.60;99.90
20068;DHT22;10194;50.824;7.134;2022-10-31T05:41:15;10.60;99.90
20068;DHT22;10194;50.824;7.134;2022-10-31T05:43:41;10.60;99.90
20068;DHT22;10194;50.824;7.134;2022-10-31T05:46:07;10.60;99.90
20068;DHT22;10194;50.824;7.134;2022-10-31T05:48:32;10.60;99.90
20068;DHT22;10194;50.824;7.134;2022-10-31T05:50:58;10.50;99.90
20068;DHT22;10194;50.824;7.134;2022-10-31T05:53:24;10.50;99.90
20068;DHT22;10194;50.824;7.134;2022-10-31T05:55:49;10.50;99.90
20068;DHT22;10194;50.824;7.134;2022-10-31T05:58:15;10.40;99.90
20068;DHT22;10194;50.824;7.134;2022-10-31T06:00:41;10.40;99.90
20068;DHT22;10194;50.824;7.134;2022-10-31T06:03:08;10.50;99.90
20068;DHT22;10194;50.824;7.134;2022-10-31T06:05:34;10.40;99.90
20068;DHT22;10194;50.824;7.134;2022-10-31T06:08:00;10.40;99.90
20068;DHT22;10194;50.824;7.134;2022-10-31T06:10:27;10.50;99.90
20068;DHT22;10194;50.824;7.134;2022-10-31T06:12:53;10.50;99.90
20068;DHT22;10194;50.824;7.134;2022-10-31T06:15:19;10.50;99.90
20068;DHT22;10194;50.824;7.134;2022-10-31T06:17:45;10.40;99.90
20068;DHT22;10194;50.824;7.134;2022-10-31T06:20:11;10.40;99.90
20068;DHT22;10194;50.824;7.134;2022-10-31T06:22:36;10.50;99.90
20068;DHT22;10194;50.824;7.134;2022-10-31T06:25:02;10.40;99.90
20068;DHT22;10194;50.824;7.134;2022-10-31T06:27:28;10.40;99.90
20068;DHT22;10194;50.824;7.134;2022-10-31T06:29:54;10.40;99.90
20068;DHT22;10194;50.824;7.134;2022-10-31T06:32:20;10.40;99.90
20068;DHT22;10194;50.824;7.134;2022-10-31T06:34:46;10.50;99.90
20068;DHT22;10194;50.824;7.134;2022-10-31T06:37:14;10.50;99.90
20068;DHT22;10194;50.824;7.134;2022-10-31T06:39:40;10.60;99.90
20068;DHT22;10194;50.824;7.134;2022-10-31T06:42:06;10.60;99.90
20068;DHT22;10194;50.824;7.134;2022-10-31T06:44:32;10.60;99.90
20068;DHT22;10194;50.824;7.134;2022-10-31T06:46:58;10.60;99.90
20068;DHT22;10194;50.824;7.134;2022-10-31T06:49:24;10.60;99.90
20068;DHT22;10194;50.824;7.134;2022-10-31T06:51:50;10.60;99.90
20068;DHT22;10194;50.824;7.134;2022-10-31T06:54:16;10.70;99.90
20068;DHT22;10194;50.824;7.134;2022-10-31T06:56:42;10.80;99.90
20068;DHT22;10194;50.824;7.134;2022-10-31T06:59:08;10.80;99.90
20068;DHT22;10194;50.824;7.134;2022-10-31T07:01:34;10.80;99.90
20068;DHT22;10194;50.824;7.134;2022-10-31T07:03:59;10.90;99.90
20068;DHT22;10194;50.824;7.134;2022-10-31T07:06:25;10.90;99.90
20068;DHT22;10194;50.824;7.134;2022-10-31T07:08:51;11.00;99.90
20068;DHT22;10194;50.824;7.134;2022-10-31T07:11:16;11.00;99.90
20068;DHT22;10194;50.824;7.134;2022-10-31T07:13:42;11.00;99.90
20068;DHT22;10194;50.824;7.134;2022-10-31T07:16:08;11.00;99.90
20068;DHT22;10194;50.824;7.134;2022-10-31T07:18:37;11.10;99.90
20068;DHT22;10194;50.824;7.134;2022-10-31T07:21:03;11.10;99.90
20068;DHT22;10194;50.824;7.134;2022-10-31T07:23:30;11.10;99.90
20068;DHT22;10194;50.824;7.134;2022-10-31T07:25:57;11.10;99.90
20068;DHT22;10194;50.824;7.134;2022-10-31T07:28:24;11.20;99.90
20068;DHT22;10194;50.824;7.134;2022-10-31T07:30:51;11.20;99.90
20068;DHT22;10194;50.824;7.134;2022-10-31T07:33:21;11.20;99.90
20068;DHT22;10194;50.824;7.134;2022-10-31T07:35:48;11.20;99.90
20068;DHT22;10194;50.824;7.134;2022-10-31T07:38:14;11.30;99.90
20068;DHT22;10194;50.824;7.134;2022-10-31T07:40:41;11.20;99.90
20068;DHT22;10194;50.824;7.134;2022-10-31T07:43:08;11.30;99.90
20068;DHT22;10194;50.824;7.134;2022-10-31T07:45:36;11.30;99.90
20068;DHT22;10194;50.824;7.134;2022-10-31T07:48:02;11.40;99.90
20068;DHT22;10194;50.824;7.134;2022-10-31T07:50:31;11.40;99.90
20068;DHT22;10194;50.824;7.134;2022-10-31T07:53:01;11.40;99.90
20068;DHT22;10194;50.824;7.134;2022-10-31T07:55:30;11.40;99.90
20068;DHT22;10194;50.824;7.134;2022-10-31T07:58:03;11.50;99.90
20068;DHT22;10194;50.824;7.134;2022-10-31T08:00:31;11.60;99.90
20068;DHT22;10194;50.824;7.134;2022-10-31T08:03:05;11.70;99.90
20068;DHT22;10194;50.824;7.134;2022-10-31T08:05:33;11.80;99.90
20068;DHT22;10194;50.824;7.134;2022-10-31T08:07:59;11.90;99.90
20068;DHT22;10194;50.824;7.134;2022-10-31T08:10:26;11.90;99.90
20068;DHT22;10194;50.824;7.134;2022-10-31T08:13:00;12.00;99.90
20068;DHT22;10194;50.824;7.134;2022-10-31T08:15:28;11.90;99.90
20068;DHT22;10194;50.824;7.134;2022-10-31T08:17:54;11.90;99.90
20068;DHT22;10194;50.824;7.134;2022-10-31T08:20:21;12.10;99.90
20068;DHT22;10194;50.824;7.134;2022-10-31T08:23:00;12.20;99.90
20068;DHT22;10194;50.824;7.134;2022-10-31T08:25:29;12.20;99.90
20068;DHT22;10194;50.824;7.134;2022-10-31T08:27:56;12.20;99.90
20068;DHT22;10194;50.824;7.134;2022-10-31T08:30:24;12.30;99.90
20068;DHT22;10194;50.824;7.134;2022-10-31T08:33:11;12.30;99.90
20068;DHT22;10194;50.824;7.134;2022-10-31T08:35:39;12.40;99.90
20068;DHT22;10194;50.824;7.134;2022-10-31T08:38:05;12.40;99.90
20068;DHT22;10194;50.824;7.134;2022-10-31T08:40:33;12.40;99.90
20068;DHT22;10194;50.824;7.134;2022-10-31T08:43:14;12.50;99.90
20068;DHT22;10194;50.824;7.134;2022-10-31T08:45:41;12.60;99.90
20068;DHT22;10194;50.824;7.134;2022-10-31T08:48:13;12.50;99.90
20068;DHT22;10194;50.824;7.134;2022-10-31T08:50:40;12.60;99.90
20068;DHT22;10194;50.824;7.134;2022-10-31T08:53:12;12.70;99.90
20068;DHT22;10194;50.824;7.134;2022-10-31T08:55:43;12.80;99.90
20068;DHT22;10194;50.824;7.134;2022-10-31T08:58:14;13.00;99.90
20068;DHT22;10194;50.824;7.134;2022-10-31T09:00:41;13.10;99.90
20068;DHT22;10194;50.824;7.134;2022-10-31T09:03:12;13.10;99.90
20068;DHT22;10194;50.824;7.134;2022-10-31T09:05:39;13.00;99.90
20068;DHT22;10194;50.824;7.134;2022-10-31T09:08:06;13.00;99.90
20068;DHT22;10194;50.824;7.134;2022-10-31T09:10:34;13.00;99.90
20068;DHT22;10194;50.824;7.134;2022-10-31T09:13:10;13.00;99.90
20068;DHT22;10194;50.824;7.134;2022-10-31T09:15:39;13.00;99.90
20068;DHT22;10194;50.824;7.134;2022-10-31T09:18:07;13.10;99.90
20068;DHT22;10194;50.824;7.134;2022-10-31T09:20:34;13.20;99.90
20068;DHT22;10194;50.824;7.134;2022-10-31T09:23:04;13.20;99.90
20068;DHT22;10194;50.824;7.134;2022-10-31T09:25:34;13.30;99.90
20068;DHT22;10194;50.824;7.134;2022-10-31T09:28:02;13.40;99.90
20068;DHT22;10194;50.824;7.134;2022-10-31T09:30:31;13.50;99.90
20068;DHT22;10194;50.824;7.134;2022-10-31T09:35:46;13.80;99.90
20068;DHT22;10194;50.824;7.134;2022-10-31T09:38:16;14.00;99.90
20068;DHT22;10194;50.824;7.134;2022-10-31T09:40:54;14.00;99.90
20068;DHT22;10194;50.824;7.134;2022-10-31T09:46:35;14.30;99.90
20068;DHT22;10194;50.824;7.134;2022-10-31T09:52:44;14.80;99.90
20068;DHT22;10194;50.824;7.134;2022-10-31T09:55:18;14.90;99.90
20068;DHT22;10194;50.824;7.134;2022-10-31T09:57:46;15.00;99.90
20068;DHT22;10194;50.824;7.134;2022-10-31T10:00:18;15.10;99.90
20068;DHT22;10194;50.824;7.134;2022-10-31T10:02:59;15.10;99.90
20068;DHT22;10194;50.824;7.134;2022-10-31T10:06:01;15.10;99.90
20068;DHT22;10194;50.824;7.134;2022-10-31T10:08:32;15.00;99.90
20068;DHT22;10194;50.824;7.134;2022-10-31T10:14:25;15.20;99.90
20068;DHT22;10194;50.824;7.134;2022-10-31T10:17:20;15.20;99.90
20068;DHT22;10194;50.824;7.134;2022-10-31T10:25:55;15.60;99.90
20068;DHT22;10194;50.824;7.134;2022-10-31T10:28:38;15.70;99.90
20068;DHT22;10194;50.824;7.134;2022-10-31T10:31:27;15.80;99.90
20068;DHT22;10194;50.824;7.134;2022-10-31T10:34:23;15.80;99.90
20068;DHT22;10194;50.824;7.134;2022-10-31T10:36:56;15.90;99.90
20068;DHT22;10194;50.824;7.134;2022-10-31T10:39:32;15.90;99.90
20068;DHT22;10194;50.824;7.134;2022-10-31T10:42:15;16.00;99.90
20068;DHT22;10194;50.824;7.134;2022-10-31T10:45:00;16.00;99.90
20068;DHT22;10194;50.824;7.134;2022-10-31T10:48:49;16.10;99.90
20068;DHT22;10194;50.824;7.134;2022-10-31T10:50:54;16.20;99.90
20068;DHT22;10194;50.824;7.134;2022-10-31T10:59:45;16.30;99.90
20068;DHT22;10194;50.824;7.134;2022-10-31T11:02:18;16.40;99.90
20068;DHT22;10194;50.824;7.134;2022-10-31T11:04:50;16.40;99.90
20068;DHT22;10194;50.824;7.134;2022-10-31T11:07:18;16.50;99.90
20068;DHT22;10194;50.824;7.134;2022-10-31T11:09:44;16.70;99.90
20068;DHT22;10194;50.824;7.134;2022-10-31T11:12:22;16.90;99.90
20068;DHT22;10194;50.824;7.134;2022-10-31T11:14:56;16.90;99.90
20068;DHT22;10194;50.824;7.134;2022-10-31T11:17:36;17.10;99.90
20068;DHT22;10194;50.824;7.134;2022-10-31T11:20:31;17.10;99.90
20068;DHT22;10194;50.824;7.134;2022-10-31T11:23:10;17.00;99.90
20068;DHT22;10194;50.824;7.134;2022-10-31T11:26:03;17.10;99.90
20068;DHT22;10194;50.824;7.134;2022-10-31T11:28:32;17.20;99.90
20068;DHT22;10194;50.824;7.134;2022-10-31T11:31:06;17.10;99.90
20068;DHT22;10194;50.824;7.134;2022-10-31T11:33:37;17.10;99.90
20068;DHT22;10194;50.824;7.134;2022-10-31T11:38:49;17.30;99.90
20068;DHT22;10194;50.824;7.134;2022-10-31T11:41:19;17.40;99.90
20068;DHT22;10194;50.824;7.134;2022-10-31T11:49:01;17.40;99.90
20068;DHT22;10194;50.824;7.134;2022-10-31T11:51:30;17.50;99.90
20068;DHT22;10194;50.824;7.134;2022-10-31T11:53:59;17.50;99.90
20068;DHT22;10194;50.824;7.134;2022-10-31T11:56:37;17.40;99.90
20068;DHT22;10194;50.824;7.134;2022-10-31T11:59:17;17.40;99.90
20068;DHT22;10194;50.824;7.134;2022-10-31T12:01:49;17.50;99.90
20068;DHT22;10194;50.824;7.134;2022-10-31T12:04:16;17.50;99.90
20068;DHT22;10194;50.824;7.134;2022-10-31T12:06:45;17.40;99.90
20068;DHT22;10194;50.824;7.134;2022-10-31T12:09:27;17.40;99.90
20068;DHT22;10194;50.824;7.134;2022-10-31T12:24:01;17.70;99.90
20068;DHT22;10194;50.824;7.134;2022-10-31T12:27:00;17.80;99.90
20068;DHT22;10194;50.824;7.134;2022-10-31T12:30:00;17.80;99.90
20068;DHT22;10194;50.824;7.134;2022-10-31T12:33:13;17.90;99.90
20068;DHT22;10194;50.824;7.134;2022-10-31T12:50:47;18.00;99.90
20068;DHT22;10194;50.824;7.134;2022-10-31T12:53:30;18.00;99.90
20068;DHT22;10194;50.824;7.134;2022-10-31T12:56:09;18.00;99.90
20068;DHT22;10194;50.824;7.134;2022-10-31T12:59:07;18.00;99.90
20068;DHT22;10194;50.824;7.134;2022-10-31T13:01:59;18.00;99.90
20068;DHT22;10194;50.824;7.134;2022-10-31T13:07:14;18.10;99.90
20068;DHT22;10194;50.824;7.134;2022-10-31T13:09:56;18.20;99.90
20068;DHT22;10194;50.824;7.134;2022-10-31T13:12:27;18.20;99.90
20068;DHT22;10194;50.824;7.134;2022-10-31T13:14:58;18.30;99.90
20068;DHT22;10194;50.824;7.134;2022-10-31T13:17:36;18.30;99.90
20068;DHT22;10194;50.824;7.134;2022-10-31T13:20:33;18.20;99.90
20068;DHT22;10194;50.824;7.134;2022-10-31T13:26:01;18.30;99.90
20068;DHT22;10194;50.824;7.134;2022-10-31T13:28:46;18.30;99.90
20068;DHT22;10194;50.824;7.134;2022-10-31T13:31:14;18.50;99.90
20068;DHT22;10194;50.824;7.134;2022-10-31T13:33:54;18.50;99.90
20068;DHT22;10194;50.824;7.134;2022-10-31T13:39:36;18.70;99.90
20068;DHT22;10194;50.824;7.134;2022-10-31T13:42:15;18.70;99.90
20068;DHT22;10194;50.824;7.134;2022-10-31T13:45:18;18.70;99.90
20068;DHT22;10194;50.824;7.134;2022-10-31T13:50:30;18.70;99.90
20068;DHT22;10194;50.824;7.134;2022-10-31T13:53:13;18.70;99.90
20068;DHT22;10194;50.824;7.134;2022-10-31T13:55:40;18.70;99.90
20068;DHT22;10194;50.824;7.134;2022-10-31T14:03:25;18.60;99.90
20068;DHT22;10194;50.824;7.134;2022-10-31T14:05:54;18.50;99.90
20068;DHT22;10194;50.824;7.134;2022-10-31T14:08:23;18.50;99.90
20068;DHT22;10194;50.824;7.134;2022-10-31T14:10:52;18.40;99.90
20068;DHT22;10194;50.824;7.134;2022-10-31T14:16:06;18.40;99.90
20068;DHT22;10194;50.824;7.134;2022-10-31T14:19:17;18.40;99.90
20068;DHT22;10194;50.824;7.134;2022-10-31T14:21:47;18.40;99.90
20068;DHT22;10194;50.824;7.134;2022-10-31T14:26:54;18.40;99.90
20068;DHT22;10194;50.824;7.134;2022-10-31T14:29:32;18.40;99.90
20068;DHT22;10194;50.824;7.134;2022-10-31T14:32:06;18.40;99.90
20068;DHT22;10194;50.824;7.134;2022-10-31T14:40:24;18.50;99.90
20068;DHT22;10194;50.824;7.134;2022-10-31T14:43:17;18.50;99.90
20068;DHT22;10194;50.824;7.134;2022-10-31T14:46:47;18.50;99.90
20068;DHT22;10194;50.824;7.134;2022-10-31T14:52:08;18.50;99.90
20068;DHT22;10194;50.824;7.134;2022-10-31T14:54:45;18.40;99.90
20068;DHT22;10194;50.824;7.134;2022-10-31T14:57:30;18.40;99.90
20068;DHT22;10194;50.824;7.134;2022-10-31T15:00:06;18.40;99.90
20068;DHT22;10194;50.824;7.134;2022-10-31T15:03:05;18.40;99.90
20068;DHT22;10194;50.824;7.134;2022-10-31T15:05:53;18.40;99.90
20068;DHT22;10194;50.824;7.134;2022-10-31T15:09:00;18.40;99.90
20068;DHT22;10194;50.824;7.134;2022-10-31T15:11:27;18.30;99.90
20068;DHT22;10194;50.824;7.134;2022-10-31T15:13:58;18.30;99.90
20068;DHT22;10194;50.824;7.134;2022-10-31T15:16:36;18.30;99.90
20068;DHT22;10194;50.824;7.134;2022-10-31T15:19:07;18.30;99.90
20068;DHT22;10194;50.824;7.134;2022-10-31T15:21:40;18.20;99.90
20068;DHT22;10194;50.824;7.134;2022-10-31T15:24:15;18.20;99.90
20068;DHT22;10194;50.824;7.134;2022-10-31T15:26:46;18.20;99.90
20068;DHT22;10194;50.824;7.134;2022-10-31T15:29:15;18.10;99.90
20068;DHT22;10194;50.824;7.134;2022-10-31T15:34:39;18.00;99.90
20068;DHT22;10194;50.824;7.134;2022-10-31T15:37:11;18.00;99.90
20068;DHT22;10194;50.824;7.134;2022-10-31T15:39:39;17.90;99.90
20068;DHT22;10194;50.824;7.134;2022-10-31T15:45:18;17.80;99.90
20068;DHT22;10194;50.824;7.134;2022-10-31T15:47:55;17.70;99.90
20068;DHT22;10194;50.824;7.134;2022-10-31T15:50:49;17.80;99.90
20068;DHT22;10194;50.824;7.134;2022-10-31T15:53:26;17.70;99.90
20068;DHT22;10194;50.824;7.134;2022-10-31T15:56:04;17.50;99.90
20068;DHT22;10194;50.824;7.134;2022-10-31T15:58:33;17.50;99.90
20068;DHT22;10194;50.824;7.134;2022-10-31T16:01:21;17.50;99.90
20068;DHT22;10194;50.824;7.134;2022-10-31T16:04:02;17.40;99.90
20068;DHT22;10194;50.824;7.134;2022-10-31T16:06:28;17.30;99.90
20068;DHT22;10194;50.824;7.134;2022-10-31T16:08:55;17.40;99.90
20068;DHT22;10194;50.824;7.134;2022-10-31T16:11:36;17.40;99.90
20068;DHT22;10194;50.824;7.134;2022-10-31T16:16:42;17.20;99.90
20068;DHT22;10194;50.824;7.134;2022-10-31T16:19:30;17.20;99.90
20068;DHT22;10194;50.824;7.134;2022-10-31T16:22:18;17.10;99.90
20068;DHT22;10194;50.824;7.134;2022-10-31T16:27:25;17.00;99.90
20068;DHT22;10194;50.824;7.134;2022-10-31T16:29:55;17.00;99.90
20068;DHT22;10194;50.824;7.134;2022-10-31T16:32:55;17.00;99.90
20068;DHT22;10194;50.824;7.134;2022-10-31T16:35:26;17.00;99.90
20068;DHT22;10194;50.824;7.134;2022-10-31T16:37:53;17.00;99.90
20068;DHT22;10194;50.824;7.134;2022-10-31T16:40:19;17.00;99.90
20068;DHT22;10194;50.824;7.134;2022-10-31T16:42:46;17.00;99.90
20068;DHT22;10194;50.824;7.134;2022-10-31T16:47:44;17.00;99.90
20068;DHT22;10194;50.824;7.134;2022-10-31T16:50:15;17.00;99.90
20068;DHT22;10194;50.824;7.134;2022-10-31T16:52:41;17.10;99.90
20068;DHT22;10194;50.824;7.134;2022-10-31T16:55:11;17.20;99.90
20068;DHT22;10194;50.824;7.134;2022-10-31T16:57:51;17.10;99.90
20068;DHT22;10194;50.824;7.134;2022-10-31T17:00:23;17.20;99.90
20068;DHT22;10194;50.824;7.134;2022-10-31T17:02:52;17.20;99.90
20068;DHT22;10194;50.824;7.134;2022-10-31T17:05:21;17.10;99.90
20068;DHT22;10194;50.824;7.134;2022-10-31T17:07:47;17.10;99.90
20068;DHT22;10194;50.824;7.134;2022-10-31T17:10:14;17.10;99.90
20068;DHT22;10194;50.824;7.134;2022-10-31T17:12:45;17.10;99.90
20068;DHT22;10194;50.824;7.134;2022-10-31T17:15:22;17.00;99.90
20068;DHT22;10194;50.824;7.134;2022-10-31T17:17:49;17.00;99.90
20068;DHT22;10194;50.824;7.134;2022-10-31T17:20:26;16.90;99.90
20068;DHT22;10194;50.824;7.134;2022-10-31T17:22:54;17.00;99.90
20068;DHT22;10194;50.824;7.134;2022-10-31T17:25:23;17.00;99.90
20068;DHT22;10194;50.824;7.134;2022-10-31T17:27:54;17.00;99.90
20068;DHT22;10194;50.824;7.134;2022-10-31T17:30:21;17.00;99.90
20068;DHT22;10194;50.824;7.134;2022-10-31T17:32:48;17.00;99.90
20068;DHT22;10194;50.824;7.134;2022-10-31T17:35:15;17.00;99.90
20068;DHT22;10194;50.824;7.134;2022-10-31T17:37:42;16.90;99.90
20068;DHT22;10194;50.824;7.134;2022-10-31T17:40:10;16.80;99.90
20068;DHT22;10194;50.824;7.134;2022-10-31T17:42:37;16.80;99.90
20068;DHT22;10194;50.824;7.134;2022-10-31T17:45:04;16.70;99.90
20068;DHT22;10194;50.824;7.134;2022-10-31T17:47:31;16.80;99.90
20068;DHT22;10194;50.824;7.134;2022-10-31T17:49:57;16.80;99.90
20068;DHT22;10194;50.824;7.134;2022-10-31T17:52:23;16.70;99.90
20068;DHT22;10194;50.824;7.134;2022-10-31T17:54:49;16.60;99.90
20068;DHT22;10194;50.824;7.134;2022-10-31T17:57:14;16.60;99.90
20068;DHT22;10194;50.824;7.134;2022-10-31T17:59:41;16.70;99.90
20068;DHT22;10194;50.824;7.134;2022-10-31T18:02:09;16.60;99.90
20068;DHT22;10194;50.824;7.134;2022-10-31T18:04:36;16.50;99.90
20068;DHT22;10194;50.824;7.134;2022-10-31T18:07:03;16.40;99.90
20068;DHT22;10194;50.824;7.134;2022-10-31T18:09:28;16.20;99.90
20068;DHT22;10194;50.824;7.134;2022-10-31T18:11:54;16.30;99.90
20068;DHT22;10194;50.824;7.134;2022-10-31T18:14:20;16.30;99.90